M I D A S
Marine Information and Data Acquisition System
Tripno 2082 of the Zeeleeuw from 2011-04-21 11:06:20 to 2011-04-21 15:38:22
Back to CruiseResearch ActivitiesStationsMapUnderway DataData graphs

EquipmentUnitsComments
TimeDGPSUTC
LatitudeDGPSDM.mWGS84
LongitudeDGPSDM.mWGS84
SpeedMeteo Stationm/sRelative wind speed
DirectionMeteo StationdegRelative wind direction
TemperatureMeteo Stationdeg CelciusAir temperature
PressureMeteo StationPaAtmospheric pressure
HumidityMeteo Station%Relative humidity
Missing or incorrect values are displayed as -999
Metereological data collected by the RV Zeeleeuw from 2011-04-21 07:36:17 to 2011-04-21 15:43:30
Time Latitude Longitude Speed Direction Temperature Pressure Humidity
2011-04-21 07:37 51°13.676 2°55.911 -999 357 17.2 101420 31
2011-04-21 07:38 51°13.701 2°55.821 -999 18 17.2 101420 31
2011-04-21 07:39 51°13.74 2°55.727 -999 31 17.3 101420 32
2011-04-21 07:40 51°13.805 2°55.65 -999 16 17.3 101420 32
2011-04-21 07:41 51°13.887 2°55.625 -999 55 17.5 101420 32
2011-04-21 07:42 51°13.95 2°55.638 -999 306 17.6 101420 31
2011-04-21 07:43 51°13.962 2°55.636 0.1 306 17.8 101420 31
2011-04-21 07:44 51°13.99 2°55.554 -999 306 17.9 101420 31
2011-04-21 07:45 51°14.093 2°55.45 -999 330 17.9 101420 31
2011-04-21 07:46 51°14.23 2°55.329 -999 328 17.9 101420 31
2011-04-21 07:47 51°14.385 2°55.179 -999 334 17.8 101420 31
2011-04-21 07:48 51°14.548 2°55.011 6.2 337 17.8 101430 31
2011-04-21 07:49 51°14.656 2°54.721 5.6 325 17.6 101420 31
2011-04-21 07:50 51°14.602 2°54.377 4.6 301 17.4 101420 32
2011-04-21 07:51 51°14.474 2°54.068 7.3 332 17.4 101420 32
2011-04-21 07:52 51°14.374 2°53.727 8.8 323 17.2 101420 33
2011-04-21 07:53 51°14.261 2°53.385 6 324 17.2 101410 32
2011-04-21 07:54 51°14.145 2°53.061 6.4 331 17.3 101420 32
2011-04-21 07:55 51°13.996 2°52.739 7.5 330 17.4 101420 31
2011-04-21 07:56 51°13.863 2°52.429 6.5 329 17.4 101410 31
2011-04-21 07:57 51°13.73 2°52.096 6.3 329 17.4 101410 31
2011-04-21 07:58 51°13.589 2°51.777 7.6 326 17.4 101410 32
2011-04-21 07:59 51°13.452 2°51.454 7.1 301 17.4 101410 32
2011-04-21 08:00 51°13.312 2°51.134 6.7 302 17.4 101410 32
2011-04-21 08:01 51°13.186 2°50.79 6.6 326 17.4 101410 33
2011-04-21 08:02 51°13.048 2°50.475 6.2 327 17.4 101410 33
2011-04-21 08:03 51°12.89 2°50.179 7.2 325 17.3 101410 33
2011-04-21 08:04 51°12.747 2°49.856 8.4 323 17.4 101400 33
2011-04-21 08:05 51°12.609 2°49.545 7.5 305 17.4 101400 33
2011-04-21 08:06 51°12.491 2°49.207 6.9 301 17.5 101410 32
2011-04-21 08:07 51°12.395 2°48.859 8.4 302 17.6 101410 34
2011-04-21 08:08 51°12.267 2°48.531 6.6 308 17.5 101410 34
2011-04-21 08:09 51°12.163 2°48.183 5.1 324 17.6 101410 33
2011-04-21 08:10 51°12.058 2°47.836 5.4 332 17.6 101410 34
2011-04-21 08:11 51°11.938 2°47.503 6 328 17.1 101420 35
2011-04-21 08:12 51°11.849 2°47.138 5.2 303 16.8 101410 35
2011-04-21 08:13 51°11.733 2°46.808 6.2 327 16.9 101420 34
2011-04-21 08:14 51°11.63 2°46.467 6 330 17 101410 34
2011-04-21 08:15 51°11.53 2°46.11 4.8 327 16.9 101420 34
2011-04-21 08:16 51°11.426 2°45.771 5.4 325 16.7 101410 35
2011-04-21 08:17 51°11.33 2°45.405 7 303 16.6 101410 35
2011-04-21 08:18 51°11.21 2°45.084 6.1 304 16.7 101410 34
2011-04-21 08:19 51°11.123 2°44.735 5.4 323 16.8 101410 35
2011-04-21 08:20 51°11.03 2°44.388 8 324 16.8 101400 36
2011-04-21 08:21 51°10.91 2°44.059 5.8 301 16.8 101400 35
2011-04-21 08:22 51°10.837 2°43.706 6.2 323 17 101410 34
2011-04-21 08:23 51°10.753 2°43.372 3.3 304 17.1 101400 33
2011-04-21 08:24 51°10.637 2°43.045 6.6 306 17.3 101400 33
2011-04-21 08:25 51°10.576 2°42.69 6 301 17.4 101400 31
2011-04-21 08:26 51°10.505 2°42.335 5.9 304 17.6 101400 32
2011-04-21 08:27 51°10.412 2°41.994 6.4 304 17.4 101400 34
2011-04-21 08:28 51°10.308 2°41.668 5.4 302 17.2 101410 34
2011-04-21 08:29 51°10.254 2°41.303 5.5 326 17.3 101410 33
2011-04-21 08:30 51°10.164 2°40.967 6.2 328 17.4 101410 33
2011-04-21 08:31 51°10.113 2°40.603 5.8 327 17.3 101410 32
2011-04-21 08:32 51°10.023 2°40.259 6.8 324 17.2 101410 32
2011-04-21 08:33 51°9.969 2°39.896 5.9 303 17.2 101400 33
2011-04-21 08:34 51°9.897 2°39.539 6.4 301 17.1 101410 33
2011-04-21 08:35 51°9.819 2°39.185 6 325 17.2 101410 33
2011-04-21 08:36 51°9.774 2°38.864 3.7 302 17.2 101410 33
2011-04-21 08:37 51°9.715 2°38.723 1.7 305 17.1 101410 33
2011-04-21 08:38 51°9.666 2°38.646 -999 305 17.2 101410 33
2011-04-21 08:39 51°9.619 2°38.583 -999 305 17.4 101410 33
2011-04-21 08:40 51°9.576 2°38.499 -999 305 17.6 101420 33
2011-04-21 08:41 51°9.541 2°38.407 -999 305 17.6 101410 32
2011-04-21 08:42 51°9.514 2°38.309 -999 305 17.7 101420 32
2011-04-21 08:43 51°9.492 2°38.209 -999 305 17.8 101420 32
2011-04-21 08:44 51°9.477 2°38.107 -999 305 17.9 101420 32
2011-04-21 08:45 51°9.469 2°38.005 -999 305 17.9 101410 32
2011-04-21 08:46 51°9.463 2°37.903 -999 305 17.9 101410 32
2011-04-21 08:47 51°9.454 2°37.8 -999 305 17.9 101410 32
2011-04-21 08:48 51°9.442 2°37.698 -999 305 18 101410 32
2011-04-21 08:49 51°9.428 2°37.597 -999 305 18 101410 32
2011-04-21 08:50 51°9.414 2°37.495 -999 305 18.1 101410 32
2011-04-21 08:51 51°9.402 2°37.389 -999 305 18.1 101410 32
2011-04-21 08:52 51°9.393 2°37.287 -999 305 18.2 101410 32
2011-04-21 08:53 51°9.386 2°37.181 -999 305 18.3 101410 31
2011-04-21 08:54 51°9.381 2°37.076 -999 305 18.4 101410 31
2011-04-21 08:55 51°9.371 2°36.972 -999 305 18.5 101410 31
2011-04-21 08:56 51°9.352 2°36.872 -999 305 18.6 101410 31
2011-04-21 08:57 51°9.325 2°36.777 -999 305 18.7 101410 31
2011-04-21 08:58 51°9.294 2°36.687 -999 305 18.7 101410 31
2011-04-21 08:59 51°9.259 2°36.595 -999 305 18.8 101410 31
2011-04-21 09:00 51°9.227 2°36.498 -999 305 18.8 101400 31
2011-04-21 09:01 51°9.203 2°36.397 -999 305 18.8 101400 31
2011-04-21 09:02 51°9.192 2°36.291 -999 305 18.9 101410 31
2011-04-21 09:03 51°9.189 2°36.192 -999 305 19.1 101410 31
2011-04-21 09:04 51°9.198 2°36.097 -999 305 19.3 101400 31
2011-04-21 09:05 51°9.216 2°36.015 -999 343 19.2 101400 31
2011-04-21 09:06 51°9.23 2°35.947 -999 343 18.8 101400 31
2011-04-21 09:07 51°9.239 2°35.884 -999 352 18.3 101410 32
2011-04-21 09:08 51°9.243 2°35.824 -999 -999 17.9 101410 35
2011-04-21 09:09 51°9.254 2°35.747 1.7 355 17.1 101400 36
2011-04-21 09:10 51°9.314 2°35.581 3.5 339 16.4 101400 37
2011-04-21 09:11 51°9.386 2°35.428 -999 342 15.9 101400 37
2011-04-21 09:12 51°9.433 2°35.358 -999 345 16.1 101400 35
2011-04-21 09:13 51°9.462 2°35.313 -999 344 16.2 101400 38
2011-04-21 09:14 51°9.48 2°35.274 -999 346 16.1 101400 37
2011-04-21 09:15 51°9.49 2°35.234 -999 350 16 101400 36
2011-04-21 09:16 51°9.496 2°35.19 -999 354 15.9 101400 36
2011-04-21 09:17 51°9.498 2°35.143 -999 356 15.7 101400 36
2011-04-21 09:18 51°9.498 2°35.095 -999 358 15.5 101400 37
2011-04-21 09:19 51°9.5 2°35.045 -999 357 15.4 101400 37
2011-04-21 09:20 51°9.505 2°34.995 -999 354 15.4 101400 37
2011-04-21 09:21 51°9.514 2°34.946 -999 351 15.4 101400 36
2011-04-21 09:22 51°9.524 2°34.9 -999 350 15.4 101400 36
2011-04-21 09:23 51°9.535 2°34.857 -999 347 15.5 101400 36
2011-04-21 09:24 51°9.547 2°34.818 -999 346 15.8 101400 36
2011-04-21 09:25 51°9.567 2°34.791 0.1 338 16.2 101400 35
2011-04-21 09:26 51°9.632 2°34.816 0.1 337 16.5 101400 34
2011-04-21 09:27 51°9.672 2°34.853 -999 338 16.8 101400 33
2011-04-21 09:28 51°9.731 2°34.904 5.5 332 17.1 101400 33
2011-04-21 09:29 51°9.85 2°35.002 6.1 335 16.9 101390 37
2011-04-21 09:30 51°10.006 2°35.149 6.7 334 16.6 101380 36
2011-04-21 09:31 51°10.154 2°35.343 7 335 16.5 101390 35
2011-04-21 09:32 51°10.321 2°35.502 7.8 333 16.5 101390 36
2011-04-21 09:33 51°10.46 2°35.711 8.7 333 16.2 101390 37
2011-04-21 09:34 51°10.603 2°35.906 8.9 333 16.1 101390 37
2011-04-21 09:35 51°10.748 2°36.099 8.9 333 15.7 101390 39
2011-04-21 09:36 51°10.884 2°36.306 8.4 335 15.5 101390 38
2011-04-21 09:37 51°11.034 2°36.487 6.8 334 15.7 101390 37
2011-04-21 09:38 51°11.167 2°36.7 7.6 334 15.8 101390 37
2011-04-21 09:39 51°11.315 2°36.888 7.6 333 15.6 101390 39
2011-04-21 09:40 51°11.436 2°37.119 8.3 331 15.4 101390 40
2011-04-21 09:41 51°11.538 2°37.373 9 331 15.2 101390 40
2011-04-21 09:42 51°11.643 2°37.623 8.4 331 15 101380 41
2011-04-21 09:43 51°11.762 2°37.854 8.6 332 14.9 101380 41
2011-04-21 09:44 51°11.843 2°38.125 8.4 330 14.8 101390 41
2011-04-21 09:45 51°11.943 2°38.376 10.9 331 14.8 101390 42
2011-04-21 09:46 51°12.057 2°38.614 9 330 14.7 101390 42
2011-04-21 09:47 51°12.151 2°38.876 7.6 330 14.7 101390 42
2011-04-21 09:48 51°12.263 2°39.117 7 331 14.7 101390 41
2011-04-21 09:49 51°12.367 2°39.366 4.4 329 14.8 101390 41
2011-04-21 09:50 51°12.463 2°39.621 8.1 331 14.8 101390 41
2011-04-21 09:51 51°12.577 2°39.857 8.4 330 14.8 101390 40
2011-04-21 09:52 51°12.675 2°40.106 8.2 330 14.8 101380 41
2011-04-21 09:53 51°12.771 2°40.356 8.4 332 14.9 101390 41
2011-04-21 09:54 51°12.884 2°40.59 10.8 330 14.8 101380 40
2011-04-21 09:55 51°12.976 2°40.849 9.1 330 14.9 101380 39
2011-04-21 09:56 51°13.087 2°41.085 4.5 331 15 101380 40
2011-04-21 09:57 51°13.19 2°41.325 8.8 330 15 101380 39
2011-04-21 09:58 51°13.287 2°41.58 8.4 332 15.1 101390 40
2011-04-21 09:59 51°13.397 2°41.815 9 331 15 101390 40
2011-04-21 10:00 51°13.489 2°42.069 10.9 331 15 101380 40
2011-04-21 10:01 51°13.6 2°42.302 12.5 330 15 101390 40
2011-04-21 10:02 51°13.695 2°42.553 11 331 14.9 101390 40
2011-04-21 10:03 51°13.802 2°42.791 8.5 331 14.8 101390 41
2011-04-21 10:04 51°13.905 2°43.03 9.2 330 14.8 101390 41
2011-04-21 10:05 51°13.993 2°43.294 8.2 330 14.7 101390 40
2011-04-21 10:06 51°14.088 2°43.55 8.6 331 14.7 101380 40
2011-04-21 10:07 51°14.198 2°43.791 10.3 331 14.6 101380 41
2011-04-21 10:08 51°14.295 2°44.047 10.1 329 14.6 101380 40
2011-04-21 10:09 51°14.386 2°44.309 8.7 329 14.6 101380 39
2011-04-21 10:10 51°14.497 2°44.549 4.6 328 14.7 101380 40
2011-04-21 10:11 51°14.552 2°44.827 7.7 326 14.8 101380 39
2011-04-21 10:12 51°14.598 2°45.122 9.1 328 14.9 101380 37
2011-04-21 10:13 51°14.659 2°45.402 9 303 15.1 101380 38
2011-04-21 10:14 51°14.681 2°45.711 10.1 325 15.2 101380 39
2011-04-21 10:15 51°14.739 2°45.999 8.8 326 15.2 101380 38
2011-04-21 10:16 51°14.749 2°46.304 8.2 304 15.4 101380 38
2011-04-21 10:17 51°14.733 2°46.621 4.1 324 15.4 101380 39
2011-04-21 10:18 51°14.725 2°46.938 6.2 307 15.5 101370 39
2011-04-21 10:19 51°14.699 2°47.249 4.4 305 15.4 101380 39
2011-04-21 10:20 51°14.704 2°47.557 8.7 305 15.2 101370 39
2011-04-21 10:21 51°14.698 2°47.861 8.9 305 15.2 101370 39
2011-04-21 10:22 51°14.693 2°48.174 9.4 301 15.4 101370 38
2011-04-21 10:23 51°14.694 2°48.484 8.1 305 15.8 101370 37
2011-04-21 10:24 51°14.674 2°48.79 7.9 322 15.9 101370 38
2011-04-21 10:25 51°14.687 2°49.105 7.8 302 15.8 101370 39
2011-04-21 10:26 51°14.686 2°49.417 8.6 321 15.7 101370 38
2011-04-21 10:27 51°14.682 2°49.72 8.8 324 15.6 101370 40
2011-04-21 10:28 51°14.704 2°50.028 8 303 15.5 101370 39
2011-04-21 10:29 51°14.7 2°50.335 10.1 307 15.5 101370 40
2011-04-21 10:30 51°14.721 2°50.637 11.1 302 15.5 101370 40
2011-04-21 10:31 51°14.72 2°50.952 8.6 304 15.5 101360 39
2011-04-21 10:32 51°14.735 2°51.259 7.6 304 15.7 101360 38
2011-04-21 10:33 51°14.741 2°51.571 7.8 303 16.1 101360 36
2011-04-21 10:34 51°14.751 2°51.879 7.6 323 16.3 101360 37
2011-04-21 10:35 51°14.755 2°52.19 7.2 308 16.3 101360 36
2011-04-21 10:36 51°14.74 2°52.504 9.4 303 16.4 101360 38
2011-04-21 10:37 51°14.752 2°52.817 9.3 307 16.4 101370 37
2011-04-21 10:38 51°14.735 2°53.132 10.9 302 16.4 101360 38
2011-04-21 10:39 51°14.744 2°53.443 10.2 308 16.3 101360 38
2011-04-21 10:40 51°14.761 2°53.751 9.1 309 16.2 101360 39
2011-04-21 10:41 51°14.739 2°54.066 7.9 302 16.1 101370 40
2011-04-21 10:42 51°14.683 2°54.373 8.2 306 16 101360 40
2011-04-21 10:43 51°14.616 2°54.674 6.9 310 16 101360 41
2011-04-21 10:44 51°14.521 2°54.96 6.2 311 15.9 101360 40
2011-04-21 10:45 51°14.368 2°55.188 6 309 15.9 101370 41
2011-04-21 10:46 51°14.21 2°55.346 4.3 309 15.8 101370 40
2011-04-21 10:47 51°14.086 2°55.439 0.6 309 15.9 101370 42
2011-04-21 10:48 51°13.98 2°55.511 -999 305 16.1 101370 42
2011-04-21 10:49 51°13.874 2°55.578 -999 305 16.5 101370 41
2011-04-21 10:50 51°13.777 2°55.655 -999 359 16.9 101370 41
2011-04-21 10:51 51°13.725 2°55.746 -999 356 17.4 101370 41
2011-04-21 10:52 51°13.691 2°55.843 -999 306 17.7 101370 40
2011-04-21 10:53 51°13.671 2°55.93 0.1 341 18.1 101370 38
2011-04-21 10:54 51°13.662 2°55.958 -999 55 18.5 101370 38
2011-04-21 10:55 51°13.662 2°55.96 -999 55 18.8 101360 35
2011-04-21 10:56 51°13.662 2°55.96 -999 55 19.4 101360 35
2011-04-21 10:57 51°13.662 2°55.96 -999 56 20 101360 32
2011-04-21 10:58 51°13.662 2°55.96 -999 306 20.6 101360 30
2011-04-21 10:59 51°13.662 2°55.96 -999 305 21.2 101360 31
2011-04-21 11:00 51°13.662 2°55.96 -999 305 21.6 101360 30
2011-04-21 11:01 51°13.662 2°55.96 -999 306 21.9 101360 25
2011-04-21 11:02 51°13.661 2°55.961 -999 305 22.3 101360 26
2011-04-21 11:03 51°13.661 2°55.96 0.1 306 22.7 101360 25
2011-04-21 11:04 51°13.66 2°55.96 -999 304 23.1 101360 24
2011-04-21 11:05 51°13.676 2°55.901 0.9 59 23.3 101360 28
2011-04-21 11:06 51°13.69 2°55.802 2.5 55 23.1 101360 29
2011-04-21 11:07 51°13.689 2°55.748 1.8 299 22.6 101360 30
2011-04-21 11:08 51°13.678 2°55.735 1.6 303 22.4 101360 30
2011-04-21 11:09 51°13.729 2°55.704 4.5 343 22 101350 31
2011-04-21 11:10 51°13.832 2°55.622 6.3 344 21.5 101350 32
2011-04-21 11:11 51°13.964 2°55.532 7.7 344 20.9 101350 33
2011-04-21 11:12 51°14.104 2°55.437 8.4 347 20.1 101340 35
2011-04-21 11:13 51°14.247 2°55.32 5.5 345 19.1 101350 37
2011-04-21 11:14 51°14.403 2°55.17 7.7 342 17.9 101350 39
2011-04-21 11:15 51°14.566 2°54.975 8.2 343 16.9 101350 40
2011-04-21 11:16 51°14.735 2°54.769 8.7 344 16.4 101340 40
2011-04-21 11:17 51°14.904 2°54.565 9.2 345 16.2 101340 40
2011-04-21 11:18 51°15.101 2°54.469 9.9 334 16.1 101340 39
2011-04-21 11:19 51°15.254 2°54.639 11.5 302 16.4 101340 38
2011-04-21 11:20 51°15.365 2°54.9 11.1 328 16.6 101340 39
2011-04-21 11:21 51°15.482 2°55.158 11.1 324 16.3 101340 40
2011-04-21 11:22 51°15.576 2°55.437 12.7 328 16.2 101340 40
2011-04-21 11:23 51°15.711 2°55.671 9.9 327 16 101340 41
2011-04-21 11:24 51°15.807 2°55.952 9.2 325 15.9 101330 41
2011-04-21 11:25 51°15.927 2°56.206 11.4 329 15.8 101340 41
2011-04-21 11:26 51°16.028 2°56.481 9.6 304 15.7 101340 41
2011-04-21 11:27 51°16.127 2°56.75 10.9 328 15.6 101340 41
2011-04-21 11:28 51°16.223 2°57.035 11.4 304 15.5 101340 41
2011-04-21 11:29 51°16.313 2°57.32 10.5 328 15.5 101330 40
2011-04-21 11:30 51°16.42 2°57.59 8.9 304 15.6 101330 40
2011-04-21 11:31 51°16.497 2°57.886 10.9 326 15.6 101330 40
2011-04-21 11:32 51°16.619 2°58.14 5.6 327 15.6 101340 40
2011-04-21 11:33 51°16.714 2°58.42 9.8 304 15.5 101320 39
2011-04-21 11:34 51°16.816 2°58.693 11.5 328 15.6 101320 38
2011-04-21 11:35 51°16.934 2°58.941 10.3 304 15.7 101320 39
2011-04-21 11:36 51°17.031 2°59.224 14.1 303 15.7 101330 39
2011-04-21 11:37 51°17.148 2°59.473 6 327 15.7 101320 39
2011-04-21 11:38 51°17.257 2°59.732 12 306 15.6 101320 39
2011-04-21 11:39 51°17.358 2°60 10.3 326 15.6 101320 40
2011-04-21 11:40 51°17.473 3°0.255 11.7 306 15.5 101320 40
2011-04-21 11:41 51°17.564 3°0.533 12.4 323 15.4 101320 41
2011-04-21 11:42 51°17.676 3°0.791 9.6 304 15.2 101320 41
2011-04-21 11:43 51°17.761 3°1.076 9.9 304 15.1 101320 41
2011-04-21 11:44 51°17.849 3°1.357 12.2 301 15 101330 42
2011-04-21 11:45 51°17.959 3°1.628 11.6 326 14.9 101330 42
2011-04-21 11:46 51°18.051 3°1.908 12.7 304 14.8 101320 41
2011-04-21 11:47 51°18.152 3°2.175 12.1 304 14.8 101320 42
2011-04-21 11:48 51°18.252 3°2.448 4.9 304 14.8 101330 41
2011-04-21 11:49 51°18.35 3°2.731 10.2 326 14.8 101320 41
2011-04-21 11:50 51°18.458 3°2.998 13.5 325 14.7 101330 42
2011-04-21 11:51 51°18.555 3°3.273 9.5 326 14.7 101320 42
2011-04-21 11:52 51°18.665 3°3.531 10.4 303 14.7 101330 42
2011-04-21 11:53 51°18.755 3°3.808 5.7 303 14.8 101320 41
2011-04-21 11:54 51°18.864 3°4.064 9.6 304 14.8 101330 41
2011-04-21 11:55 51°18.958 3°4.332 10.3 307 14.9 101320 40
2011-04-21 11:56 51°19.059 3°4.606 5.7 304 15 101320 40
2011-04-21 11:57 51°19.159 3°4.87 11.8 302 15 101320 40
2011-04-21 11:58 51°19.29 3°5.095 5 329 15 101330 40
2011-04-21 11:59 51°19.468 3°5.234 12.1 331 15 101330 41
2011-04-21 12:00 51°19.641 3°5.367 12.5 331 14.9 101340 41
2011-04-21 12:01 51°19.832 3°5.456 12.4 332 14.9 101340 41
2011-04-21 12:02 51°20.009 3°5.596 11.8 331 14.9 101340 41
2011-04-21 12:03 51°20.196 3°5.7 10.7 333 14.9 101330 41
2011-04-21 12:04 51°20.371 3°5.841 9.4 330 14.9 101330 41
2011-04-21 12:05 51°20.548 3°5.981 11.1 334 15 101330 40
2011-04-21 12:06 51°20.734 3°6.085 10.1 329 15.1 101330 41
2011-04-21 12:07 51°20.892 3°6.278 9.1 329 15.1 101330 40
2011-04-21 12:08 51°21.008 3°6.404 9.1 326 15.1 101330 40
2011-04-21 12:09 51°21.052 3°6.507 6.1 301 15.2 101340 41
2011-04-21 12:10 51°21.07 3°6.592 6.3 308 15.3 101340 40
2011-04-21 12:11 51°21.093 3°6.674 6.8 309 15.4 101340 40
2011-04-21 12:12 51°21.122 3°6.752 6.1 305 15.4 101340 39
2011-04-21 12:13 51°21.148 3°6.834 6.3 306 15.5 101340 39
2011-04-21 12:14 51°21.171 3°6.921 6.4 305 15.6 101330 39
2011-04-21 12:15 51°21.198 3°7.004 6.2 304 15.6 101330 39
2011-04-21 12:16 51°21.231 3°7.081 6.6 302 15.7 101330 38
2011-04-21 12:17 51°21.266 3°7.157 6.4 304 15.8 101330 38
2011-04-21 12:18 51°21.298 3°7.238 5.9 306 15.9 101330 37
2011-04-21 12:19 51°21.332 3°7.32 6.4 305 16 101330 38
2011-04-21 12:20 51°21.371 3°7.393 6.9 328 16 101330 38
2011-04-21 12:21 51°21.42 3°7.444 6.1 332 16 101330 37
2011-04-21 12:22 51°21.476 3°7.479 7.1 333 15.9 101330 39
2011-04-21 12:23 51°21.531 3°7.52 6.5 329 15.8 101330 39
2011-04-21 12:24 51°21.584 3°7.569 6.7 329 15.7 101340 38
2011-04-21 12:25 51°21.637 3°7.612 6.7 337 15.6 101330 40
2011-04-21 12:26 51°21.695 3°7.613 7 346 15.6 101330 40
2011-04-21 12:27 51°21.751 3°7.582 6.5 351 15.4 101330 39
2011-04-21 12:28 51°21.804 3°7.524 6.7 357 15.2 101330 40
2011-04-21 12:29 51°21.852 3°7.456 6.9 358 15 101330 40
2011-04-21 12:30 51°21.897 3°7.389 6.3 358 14.9 101330 40
2011-04-21 12:31 51°21.94 3°7.323 5.5 358 14.7 101330 40
2011-04-21 12:32 51°21.984 3°7.258 5.4 358 14.6 101330 41
2011-04-21 12:33 51°22.03 3°7.199 5.6 352 14.6 101330 41
2011-04-21 12:34 51°22.077 3°7.146 6 355 14.5 101330 40
2011-04-21 12:35 51°22.123 3°7.089 5.3 358 14.5 101330 40
2011-04-21 12:36 51°22.166 3°7.026 6.3 359 14.5 101330 41
2011-04-21 12:37 51°22.209 3°6.963 6.8 358 14.4 101330 41
2011-04-21 12:38 51°22.254 3°6.906 5.9 355 14.3 101330 42
2011-04-21 12:39 51°22.302 3°6.858 6.1 356 14.2 101330 41
2011-04-21 12:40 51°22.35 3°6.812 5.5 355 14.2 101330 41
2011-04-21 12:41 51°22.397 3°6.765 5.8 355 14.2 101330 41
2011-04-21 12:42 51°22.443 3°6.715 6.2 358 14.2 101330 42
2011-04-21 12:43 51°22.487 3°6.661 6.2 358 14.2 101330 42
2011-04-21 12:44 51°22.532 3°6.611 7 359 14.1 101330 42
2011-04-21 12:45 51°22.578 3°6.566 6.2 356 14.1 101330 41
2011-04-21 12:46 51°22.624 3°6.527 6.7 357 14.1 101320 41
2011-04-21 12:47 51°22.67 3°6.487 5.9 357 14.1 101330 41
2011-04-21 12:48 51°22.715 3°6.449 6 355 14.2 101330 41
2011-04-21 12:49 51°22.761 3°6.412 5.4 356 14.3 101330 41
2011-04-21 12:50 51°22.806 3°6.379 6.3 357 14.4 101320 40
2011-04-21 12:51 51°22.848 3°6.344 5.9 360 14.4 101320 40
2011-04-21 12:52 51°22.886 3°6.302 5.4 1 14.3 101330 41
2011-04-21 12:53 51°22.926 3°6.265 5.9 358 14.2 101320 41
2011-04-21 12:54 51°22.965 3°6.234 6.1 358 14.2 101320 42
2011-04-21 12:55 51°23.006 3°6.207 5.9 357 14.1 101320 41
2011-04-21 12:56 51°23.045 3°6.179 6.6 359 14.1 101320 42
2011-04-21 12:57 51°23.082 3°6.144 7 -999 14 101320 42
2011-04-21 12:58 51°23.119 3°6.11 7.2 355 14 101310 42
2011-04-21 12:59 51°23.157 3°6.123 5.9 334 14 101320 40
2011-04-21 13:00 51°23.186 3°6.188 6.9 332 14.2 101320 41
2011-04-21 13:01 51°23.222 3°6.253 6 345 14.4 101320 41
2011-04-21 13:02 51°23.268 3°6.308 9 337 14.7 101310 40
2011-04-21 13:03 51°23.324 3°6.374 6.6 333 14.8 101310 39
2011-04-21 13:04 51°23.366 3°6.475 7.3 309 14.7 101310 39
2011-04-21 13:05 51°23.366 3°6.617 6.7 307 14.6 101310 40
2011-04-21 13:06 51°23.355 3°6.772 6.1 303 14.5 101310 41
2011-04-21 13:07 51°23.347 3°6.915 6.7 304 14.4 101310 40
2011-04-21 13:08 51°23.339 3°7.05 7.3 305 14.4 101300 41
2011-04-21 13:09 51°23.333 3°7.182 6.8 300 14.3 101300 41
2011-04-21 13:10 51°23.32 3°7.314 6.3 304 14.3 101300 41
2011-04-21 13:11 51°23.296 3°7.444 7.1 303 14.2 101310 40
2011-04-21 13:12 51°23.271 3°7.576 5.6 306 14.2 101300 40
2011-04-21 13:13 51°23.247 3°7.71 6 308 14.2 101300 40
2011-04-21 13:14 51°23.222 3°7.842 6.7 303 14.2 101300 40
2011-04-21 13:15 51°23.177 3°7.93 4.4 57 14.2 101310 40
2011-04-21 13:16 51°23.133 3°7.959 3.4 50 14.1 101310 40
2011-04-21 13:17 51°23.111 3°7.948 4.5 31 14.1 101300 40
2011-04-21 13:18 51°23.111 3°7.886 5.6 19 14.1 101300 41
2011-04-21 13:19 51°23.126 3°7.784 5.6 12 14.1 101290 41
2011-04-21 13:20 51°23.158 3°7.679 8.2 9 14.1 101290 40
2011-04-21 13:21 51°23.207 3°7.585 6.3 1 13.9 101290 40
2011-04-21 13:22 51°23.277 3°7.523 6.6 354 13.8 101290 41
2011-04-21 13:23 51°23.356 3°7.479 7.4 356 13.7 101280 40
2011-04-21 13:24 51°23.435 3°7.434 6.9 358 13.6 101290 41
2011-04-21 13:25 51°23.514 3°7.387 7.3 -999 13.5 101280 41
2011-04-21 13:26 51°23.593 3°7.339 8.3 357 13.4 101280 43
2011-04-21 13:27 51°23.677 3°7.3 8.6 356 13.4 101280 42
2011-04-21 13:28 51°23.763 3°7.268 6.3 354 13.6 101270 42
2011-04-21 13:29 51°23.847 3°7.23 6.9 359 13.5 101270 42
2011-04-21 13:30 51°23.933 3°7.195 7.4 354 13.4 101270 43
2011-04-21 13:31 51°24.027 3°7.188 6.6 351 13.3 101270 41
2011-04-21 13:32 51°24.123 3°7.187 7.2 352 13.2 101270 42
2011-04-21 13:33 51°24.218 3°7.183 7.4 352 13.2 101270 44
2011-04-21 13:34 51°24.309 3°7.169 7.5 355 13.1 101270 44
2011-04-21 13:35 51°24.397 3°7.147 8.6 354 13.1 101260 44
2011-04-21 13:36 51°24.487 3°7.132 7.9 353 13 101270 45
2011-04-21 13:37 51°24.578 3°7.124 8.6 351 13 101270 45
2011-04-21 13:38 51°24.671 3°7.119 8.7 352 13 101270 45
2011-04-21 13:39 51°24.761 3°7.103 7.6 354 13 101270 43
2011-04-21 13:40 51°24.849 3°7.08 7.3 352 13 101260 45
2011-04-21 13:41 51°24.939 3°7.06 7.6 352 12.9 101270 46
2011-04-21 13:42 51°25.033 3°7.053 7.8 350 12.9 101270 45
2011-04-21 13:43 51°25.127 3°7.044 8.5 352 12.9 101260 45
2011-04-21 13:44 51°25.219 3°7.024 7.7 353 12.9 101260 45
2011-04-21 13:45 51°25.312 3°6.999 7.7 351 12.9 101260 45
2011-04-21 13:46 51°25.407 3°6.978 7.4 351 12.9 101260 46
2011-04-21 13:47 51°25.505 3°6.966 7.1 350 12.8 101260 44
2011-04-21 13:48 51°25.603 3°6.954 7 349 12.8 101260 45
2011-04-21 13:49 51°25.7 3°6.934 7.4 352 12.8 101260 45
2011-04-21 13:50 51°25.794 3°6.903 6.9 351 12.8 101250 45
2011-04-21 13:51 51°25.89 3°6.875 6.4 351 12.7 101250 45
2011-04-21 13:52 51°25.99 3°6.856 7.7 348 12.7 101250 45
2011-04-21 13:53 51°26.091 3°6.843 6.1 349 12.7 101250 45
2011-04-21 13:54 51°26.191 3°6.822 7.1 351 12.7 101240 44
2011-04-21 13:55 51°26.29 3°6.794 6.9 352 12.7 101240 44
2011-04-21 13:56 51°26.387 3°6.759 6.7 354 12.7 101240 45
2011-04-21 13:57 51°26.477 3°6.706 9 358 12.6 101240 44
2011-04-21 13:58 51°26.559 3°6.635 7.2 358 12.6 101240 45
2011-04-21 13:59 51°26.643 3°6.565 5.9 357 12.6 101240 45
2011-04-21 14:00 51°26.732 3°6.501 8.3 356 12.6 101240 44
2011-04-21 14:01 51°26.822 3°6.441 7.1 357 12.6 101240 44
2011-04-21 14:02 51°26.912 3°6.381 7.3 356 12.6 101240 45
2011-04-21 14:03 51°27.001 3°6.317 6.5 -999 12.6 101240 44
2011-04-21 14:04 51°27.083 3°6.242 7.2 360 12.6 101240 45
2011-04-21 14:05 51°27.166 3°6.17 8.8 358 12.6 101240 45
2011-04-21 14:06 51°27.254 3°6.104 7.5 355 12.6 101240 45
2011-04-21 14:07 51°27.342 3°6.044 7.1 357 12.6 101230 44
2011-04-21 14:08 51°27.43 3°5.983 8.8 358 12.6 101240 45
2011-04-21 14:09 51°27.513 3°5.914 6.1 3 12.6 101230 45
2011-04-21 14:10 51°27.562 3°5.803 6.3 9 12.6 101240 45
2011-04-21 14:11 51°27.57 3°5.612 4.1 15 12.6 101240 44
2011-04-21 14:12 51°27.485 3°5.406 0.3 10 12.7 101250 45
2011-04-21 14:13 51°27.329 3°5.227 -999 353 12.7 101250 45
2011-04-21 14:14 51°27.177 3°5.036 -999 8 12.8 101240 45
2011-04-21 14:15 51°27.046 3°4.811 1.2 5 12.9 101240 45
2011-04-21 14:16 51°26.914 3°4.587 1.2 -999 12.9 101240 44
2011-04-21 14:17 51°26.773 3°4.379 0.1 359 12.9 101240 44
2011-04-21 14:18 51°26.63 3°4.176 0.8 2 13 101240 44
2011-04-21 14:19 51°26.49 3°3.969 -999 4 13 101240 43
2011-04-21 14:20 51°26.359 3°3.75 1.4 4 13 101230 44
2011-04-21 14:21 51°26.226 3°3.534 -999 4 13.1 101230 44
2011-04-21 14:22 51°26.067 3°3.363 -999 1 13.1 101230 43
2011-04-21 14:23 51°25.912 3°3.18 -999 -999 13.2 101230 43
2011-04-21 14:24 51°25.761 3°2.993 -999 355 13.2 101230 43
2011-04-21 14:25 51°25.616 3°2.792 -999 359 13.2 101220 43
2011-04-21 14:26 51°25.515 3°2.543 3.7 1 13.2 101220 42
2011-04-21 14:27 51°25.428 3°2.281 0.9 9 13.1 101220 41
2011-04-21 14:28 51°25.273 3°2.102 -999 360 13.1 101220 44
2011-04-21 14:29 51°25.113 3°1.926 -999 354 13.2 101220 43
2011-04-21 14:30 51°24.961 3°1.734 -999 10 13.2 101220 43
2011-04-21 14:31 51°24.818 3°1.528 0.1 5 13.2 101220 43
2011-04-21 14:32 51°24.666 3°1.331 -999 4 13.3 101220 43
2011-04-21 14:33 51°24.509 3°1.144 -999 359 13.3 101220 43
2011-04-21 14:34 51°24.369 3°0.936 0.1 12 13.4 101220 43
2011-04-21 14:35 51°24.222 3°0.742 -999 -999 13.4 101210 42
2011-04-21 14:36 51°24.076 3°0.549 0.1 359 13.4 101220 43
2011-04-21 14:37 51°23.94 3°0.343 0.1 11 13.4 101210 43
2011-04-21 14:38 51°23.793 3°0.159 -999 16 13.4 101210 43
2011-04-21 14:39 51°23.645 2°59.98 0.1 12 13.4 101210 43
2011-04-21 14:40 51°23.492 2°59.813 -999 22 13.4 101210 43
2011-04-21 14:41 51°23.313 2°59.714 -999 305 13.6 101210 43
2011-04-21 14:42 51°23.121 2°59.679 1.3 306 13.7 101210 44
2011-04-21 14:43 51°22.931 2°59.631 -999 300 13.8 101210 42
2011-04-21 14:44 51°22.741 2°59.574 1.6 306 13.8 101210 43
2011-04-21 14:45 51°22.555 2°59.505 -999 305 13.9 101210 43
2011-04-21 14:46 51°22.372 2°59.413 -999 300 14 101210 43
2011-04-21 14:47 51°22.201 2°59.277 -999 306 14 101210 42
2011-04-21 14:48 51°22.028 2°59.142 -999 305 14 101210 42
2011-04-21 14:49 51°21.865 2°58.98 -999 329 14.1 101210 42
2011-04-21 14:50 51°21.712 2°58.801 -999 1 14.1 101200 42
2011-04-21 14:51 51°21.575 2°58.594 0.1 6 14.1 101200 40
2011-04-21 14:52 51°21.426 2°58.407 -999 3 14 101200 42
2011-04-21 14:53 51°21.276 2°58.219 -999 -999 14 101200 42
2011-04-21 14:54 51°21.137 2°58.013 -999 359 14 101200 42
2011-04-21 14:55 51°20.99 2°57.822 -999 346 14 101200 42
2011-04-21 14:56 51°20.839 2°57.642 -999 340 14 101190 42
2011-04-21 14:57 51°20.703 2°57.436 -999 355 14.1 101190 42
2011-04-21 14:58 51°20.571 2°57.223 -999 359 14 101200 42
2011-04-21 14:59 51°20.428 2°57.028 -999 343 14 101200 41
2011-04-21 15:00 51°20.298 2°56.81 -999 346 14 101200 42
2011-04-21 15:01 51°20.155 2°56.613 -999 327 14.1 101200 42
2011-04-21 15:02 51°20.01 2°56.415 -999 344 14.1 101190 42
2011-04-21 15:03 51°19.876 2°56.2 0.1 352 14.2 101190 42
2011-04-21 15:04 51°19.746 2°55.979 -999 345 14.2 101190 42
2011-04-21 15:05 51°19.601 2°55.782 -999 341 14.2 101190 42
2011-04-21 15:06 51°19.459 2°55.574 -999 351 14.4 101190 42
2011-04-21 15:07 51°19.33 2°55.346 -999 347 14.3 101190 41
2011-04-21 15:08 51°19.188 2°55.14 -999 338 14.3 101190 42
2011-04-21 15:09 51°19.038 2°54.944 -999 336 14.3 101190 43
2011-04-21 15:10 51°18.9 2°54.729 -999 342 14.4 101190 43
2011-04-21 15:11 51°18.755 2°54.526 -999 305 14.4 101190 43
2011-04-21 15:12 51°18.602 2°54.34 -999 305 14.6 101180 43
2011-04-21 15:13 51°18.434 2°54.191 1.7 300 14.7 101180 43
2011-04-21 15:14 51°18.26 2°54.055 -999 305 14.7 101180 42
2011-04-21 15:15 51°18.093 2°53.898 -999 305 14.7 101180 41
2011-04-21 15:16 51°17.924 2°53.748 2.3 310 14.7 101180 42
2011-04-21 15:17 51°17.744 2°53.628 2.3 307 14.6 101180 42
2011-04-21 15:18 51°17.567 2°53.496 2.4 308 14.6 101180 41
2011-04-21 15:19 51°17.394 2°53.35 1.6 302 14.6 101180 42
2011-04-21 15:20 51°17.222 2°53.206 0.2 304 14.6 101180 43
2011-04-21 15:21 51°17.03 2°53.156 3.9 307 14.6 101170 43
2011-04-21 15:22 51°16.831 2°53.164 4.2 301 14.6 101170 43
2011-04-21 15:23 51°16.63 2°53.221 5.9 305 14.5 101170 40
2011-04-21 15:24 51°16.434 2°53.336 7 304 14.4 101160 42
2011-04-21 15:25 51°16.247 2°53.491 6.1 304 14.5 101160 42
2011-04-21 15:26 51°16.059 2°53.64 7.2 302 14.4 101160 43
2011-04-21 15:27 51°15.862 2°53.748 5.8 308 14.4 101160 42
2011-04-21 15:28 51°15.671 2°53.885 7.1 302 14.3 101160 43
2011-04-21 15:29 51°15.491 2°54.067 7.4 303 14.3 101160 42
2011-04-21 15:30 51°15.31 2°54.245 6.8 302 14.2 101160 42
2011-04-21 15:31 51°15.122 2°54.395 7.3 302 14.2 101160 42
2011-04-21 15:32 51°14.947 2°54.589 8.8 305 14.2 101150 42
2011-04-21 15:33 51°14.773 2°54.783 7.6 305 14.3 101150 42
2011-04-21 15:34 51°14.6 2°54.981 6.8 307 14.3 101150 43
2011-04-21 15:35 51°14.417 2°55.145 7.4 304 14.3 101140 42
2011-04-21 15:36 51°14.248 2°55.313 7 304 14.3 101150 43
2011-04-21 15:37 51°14.097 2°55.433 5.6 303 14.5 101150 42
2011-04-21 15:38 51°13.956 2°55.536 4.6 307 14.6 101160 42
2011-04-21 15:39 51°13.835 2°55.631 3.6 303 14.9 101160 40
2011-04-21 15:40 51°13.743 2°55.744 4.4 309 15.2 101160 42
2011-04-21 15:41 51°13.694 2°55.851 3.5 307 15.8 101150 40
2011-04-21 15:42 51°13.667 2°55.931 3.4 303 16.4 101150 40
2011-04-21 15:43 51°13.661 2°55.959 -999 306 17.1 101150 38